createdAt,value
2022-12-22T00:01:33.471Z,0.40
2022-12-22T00:04:18.912Z,0.17
2022-12-22T00:07:04.081Z,0.22
2022-12-22T00:09:49.075Z,0.25
2022-12-22T00:12:35.569Z,0.20
2022-12-22T00:15:22.556Z,0.82
2022-12-22T00:18:09.158Z,0.43
2022-12-22T00:20:54.189Z,0.45
2022-12-22T00:23:39.539Z,0.93
2022-12-22T00:26:26.717Z,0.30
2022-12-22T00:29:12.094Z,0.50
2022-12-22T00:31:58.423Z,0.40
2022-12-22T00:34:46.255Z,0.40
2022-12-22T00:37:32.224Z,0.50
2022-12-22T00:40:17.549Z,0.13
2022-12-22T00:43:02.874Z,0.30
2022-12-22T00:45:48.659Z,0.25
2022-12-22T00:48:38.399Z,1.00
2022-12-22T00:51:25.503Z,0.55
2022-12-22T00:54:10.879Z,0.57
2022-12-22T00:56:56.303Z,0.60
2022-12-22T00:59:41.835Z,0.20
2022-12-22T01:02:27.474Z,0.55
2022-12-22T01:05:12.782Z,0.52
2022-12-22T01:07:59.345Z,0.50
2022-12-22T01:10:45.182Z,0.40
2022-12-22T01:13:31.068Z,0.85
2022-12-22T01:16:16.739Z,0.25
2022-12-22T01:19:02.304Z,0.20
2022-12-22T01:21:47.910Z,0.70
2022-12-22T01:24:35.848Z,0.57
2022-12-22T01:27:21.328Z,0.20
2022-12-22T01:30:06.751Z,0.20
2022-12-22T01:32:52.128Z,0.32
2022-12-22T01:35:38.513Z,0.65
2022-12-22T01:38:23.798Z,0.70
2022-12-22T01:41:11.279Z,0.20
2022-12-22T01:43:56.857Z,0.20
2022-12-22T01:46:43.330Z,0.60
2022-12-22T01:49:30.624Z,0.28
2022-12-22T01:52:16.005Z,0.47
2022-12-22T01:55:01.786Z,0.43
2022-12-22T01:57:49.677Z,0.30
2022-12-22T02:00:34.806Z,0.20
2022-12-22T02:03:20.389Z,0.68
2022-12-22T02:06:11.172Z,0.20
2022-12-22T02:08:58.695Z,0.20
2022-12-22T02:11:46.215Z,0.50
2022-12-22T02:14:39.588Z,1.23
2022-12-22T02:17:29.903Z,0.43
2022-12-22T02:20:25.547Z,0.65
2022-12-22T02:23:14.147Z,0.20
2022-12-22T02:26:01.298Z,0.60
2022-12-22T02:28:50.343Z,0.57
2022-12-22T02:31:35.277Z,0.63
2022-12-22T02:34:20.516Z,0.10
2022-12-22T02:37:08.815Z,0.20
2022-12-22T02:39:57.524Z,0.60
2022-12-22T02:42:46.317Z,0.20
2022-12-22T02:45:37.172Z,0.43
2022-12-22T02:48:25.028Z,0.75
2022-12-22T02:51:11.608Z,0.30
2022-12-22T02:53:58.211Z,0.45
2022-12-22T02:56:43.811Z,1.10
2022-12-22T02:59:29.068Z,0.20
2022-12-22T03:02:15.933Z,0.35
2022-12-22T03:05:01.204Z,0.43
2022-12-22T03:07:46.320Z,0.30
2022-12-22T03:10:31.691Z,0.30
2022-12-22T03:13:17.056Z,0.63
2022-12-22T03:16:02.405Z,0.50
2022-12-22T03:18:49.303Z,0.20
2022-12-22T03:21:34.943Z,0.20
2022-12-22T03:24:20.216Z,0.30
2022-12-22T03:26:48.123Z,0.13
2022-12-22T03:29:15.988Z,0.52
2022-12-22T03:31:43.907Z,0.68
2022-12-22T03:34:13.256Z,0.30
2022-12-22T03:36:41.074Z,0.20
2022-12-22T03:39:09.812Z,0.50
2022-12-22T03:41:54.818Z,0.10
2022-12-22T03:44:39.983Z,0.30
2022-12-22T03:47:07.875Z,0.20
2022-12-22T03:49:37.215Z,0.30
2022-12-22T03:52:05.139Z,0.30
2022-12-22T03:54:32.894Z,0.70
2022-12-22T03:57:00.712Z,0.32
2022-12-22T03:59:28.500Z,0.65
2022-12-22T04:01:56.628Z,0.32
2022-12-22T04:04:25.790Z,1.02
2022-12-22T04:06:55.699Z,0.35
2022-12-22T04:09:24.886Z,0.38
2022-12-22T04:12:10.545Z,0.38
2022-12-22T04:14:38.697Z,0.57
2022-12-22T04:17:07.140Z,0.30
2022-12-22T04:19:35.110Z,0.30
2022-12-22T04:22:04.394Z,0.20
2022-12-22T04:24:32.313Z,0.40
2022-12-22T04:27:00.120Z,0.20
2022-12-22T04:29:28.006Z,0.88
2022-12-22T04:31:55.860Z,0.17
2022-12-22T04:34:23.821Z,0.85
2022-12-22T04:36:51.638Z,0.35
2022-12-22T04:39:20.828Z,1.27
2022-12-22T04:41:48.605Z,0.17
2022-12-22T04:44:16.348Z,0.13
2022-12-22T04:46:44.181Z,0.32
2022-12-22T04:49:11.853Z,0.32
2022-12-22T04:51:39.647Z,0.35
2022-12-22T04:54:07.314Z,0.20
2022-12-22T04:56:36.368Z,0.35
2022-12-22T04:59:04.229Z,0.85
2022-12-22T05:01:32.272Z,0.28
2022-12-22T05:04:00.206Z,0.63
2022-12-22T05:06:27.932Z,0.45
2022-12-22T05:08:55.621Z,0.22
2022-12-22T05:11:23.304Z,0.50
2022-12-22T05:13:52.682Z,0.25
2022-12-22T05:16:20.492Z,0.55
2022-12-22T05:18:48.311Z,0.70
2022-12-22T05:21:16.793Z,0.40
2022-12-22T05:23:44.721Z,0.40
2022-12-22T05:26:14.592Z,0.30
2022-12-22T05:28:42.645Z,0.98
2022-12-22T05:31:15.308Z,1.85
2022-12-22T05:33:43.129Z,1.00
2022-12-22T05:36:10.898Z,0.68
2022-12-22T05:38:38.761Z,0.50
2022-12-22T05:41:06.817Z,0.77
2022-12-22T05:43:35.180Z,0.10
2022-12-22T05:46:03.513Z,1.42
2022-12-22T05:48:38.137Z,0.70
2022-12-22T05:51:07.408Z,0.82
2022-12-22T05:53:35.373Z,1.65
2022-12-22T05:56:03.162Z,1.95
2022-12-22T05:58:31.001Z,0.63
2022-12-22T06:00:59.271Z,0.77
2022-12-22T06:03:27.544Z,2.28
2022-12-22T06:05:56.973Z,0.85
2022-12-22T06:08:24.829Z,0.88
2022-12-22T06:10:54.828Z,1.98
2022-12-22T06:13:22.842Z,1.83
2022-12-22T06:15:50.809Z,0.40
2022-12-22T06:18:18.635Z,1.77
2022-12-22T06:20:46.807Z,0.50
2022-12-22T06:23:15.941Z,1.05
2022-12-22T06:25:43.703Z,0.90
2022-12-22T06:28:11.503Z,2.38
2022-12-22T06:30:39.345Z,0.93
2022-12-22T06:33:07.054Z,3.17
2022-12-22T06:35:34.774Z,1.00
2022-12-22T06:38:02.410Z,1.63
2022-12-22T06:40:31.679Z,0.98
2022-12-22T06:43:10.983Z,0.80
2022-12-22T06:45:40.405Z,1.10
2022-12-22T06:48:08.206Z,3.03
2022-12-22T06:50:35.947Z,0.88
2022-12-22T06:53:04.155Z,0.95
2022-12-22T06:55:33.476Z,1.27
2022-12-22T06:58:01.196Z,0.85
2022-12-22T07:00:29.274Z,0.50
2022-12-22T07:02:57.470Z,4.70
2022-12-22T07:05:25.564Z,1.20
2022-12-22T07:07:53.843Z,0.60
2022-12-22T07:10:41.744Z,1.88
2022-12-22T07:13:20.519Z,1.73
2022-12-22T07:15:53.829Z,0.57
2022-12-22T07:18:25.176Z,2.17
2022-12-22T07:20:53.055Z,0.55
2022-12-22T07:23:20.823Z,0.93
2022-12-22T07:25:48.702Z,1.30
2022-12-22T07:28:20.918Z,2.53
2022-12-22T07:30:49.371Z,1.77
2022-12-22T07:33:17.408Z,1.67
2022-12-22T07:35:45.213Z,2.28
2022-12-22T07:38:13.316Z,2.58
2022-12-22T07:40:42.295Z,2.70
2022-12-22T07:43:10.325Z,2.90
2022-12-22T07:45:39.449Z,2.92
2022-12-22T07:48:27.512Z,3.53
2022-12-22T07:50:54.622Z,3.78
2022-12-22T07:53:22.260Z,3.80
2022-12-22T07:55:50.018Z,3.42
2022-12-22T07:58:17.770Z,3.85
2022-12-22T08:00:47.959Z,3.90
2022-12-22T08:03:15.800Z,4.10
2022-12-22T08:05:44.529Z,4.22
2022-12-22T08:08:12.294Z,4.80
2022-12-22T08:10:39.983Z,4.50
2022-12-22T08:13:07.741Z,4.93
2022-12-22T08:15:35.447Z,4.45
2022-12-22T08:18:04.685Z,5.32
2022-12-22T08:20:33.112Z,4.60
2022-12-22T08:23:00.876Z,5.20
2022-12-22T08:25:28.847Z,5.40
2022-12-22T08:27:57.409Z,4.70
2022-12-22T08:30:25.319Z,5.47
2022-12-22T08:32:53.259Z,5.35
2022-12-22T08:35:22.537Z,5.95
2022-12-22T08:37:50.885Z,5.25
2022-12-22T08:40:20.823Z,5.97
2022-12-22T08:42:49.182Z,6.00
2022-12-22T08:45:16.932Z,5.70
2022-12-22T08:47:44.750Z,5.00
2022-12-22T08:50:13.965Z,5.20
2022-12-22T08:52:43.194Z,5.63
2022-12-22T08:55:11.316Z,4.72
2022-12-22T08:57:39.195Z,5.18
2022-12-22T09:00:08.697Z,5.13
2022-12-22T09:02:36.670Z,5.22
2022-12-22T09:05:04.713Z,5.72
2022-12-22T09:07:32.547Z,5.40
2022-12-22T09:10:01.754Z,4.90
2022-12-22T09:12:29.595Z,5.65
2022-12-22T09:14:57.390Z,4.53
2022-12-22T09:17:25.223Z,5.55
2022-12-22T09:19:53.050Z,5.63
2022-12-22T09:22:27.915Z,5.65
2022-12-22T09:24:56.657Z,5.82
2022-12-22T09:27:25.994Z,5.60
2022-12-22T09:29:53.867Z,5.38
2022-12-22T09:32:21.872Z,5.22
2022-12-22T09:34:49.937Z,3.00
2022-12-22T09:37:17.832Z,1.65
2022-12-22T09:39:46.661Z,6.97
2022-12-22T09:42:15.908Z,1.85
2022-12-22T09:44:46.547Z,2.10
2022-12-22T09:47:18.092Z,1.17
2022-12-22T09:49:46.164Z,1.85
2022-12-22T09:52:24.110Z,1.30
2022-12-22T09:54:51.991Z,1.95
2022-12-22T09:57:20.239Z,2.60
2022-12-22T09:59:49.530Z,1.20
2022-12-22T10:02:23.119Z,2.30
2022-12-22T10:04:57.582Z,2.40
2022-12-22T10:07:27.818Z,2.33
2022-12-22T10:09:55.887Z,2.70
2022-12-22T10:12:25.309Z,2.00
2022-12-22T10:14:55.556Z,1.88
2022-12-22T10:17:25.461Z,2.60
2022-12-22T10:19:54.588Z,2.17
2022-12-22T10:22:28.341Z,2.05
2022-12-22T10:24:56.365Z,1.95
2022-12-22T10:27:28.856Z,2.35
2022-12-22T10:30:12.151Z,2.15
2022-12-22T10:32:41.411Z,2.47
2022-12-22T10:35:09.381Z,2.13
2022-12-22T10:37:38.216Z,1.95
2022-12-22T10:40:16.688Z,2.20
2022-12-22T10:42:48.283Z,2.08
2022-12-22T10:45:20.397Z,1.40
2022-12-22T10:47:50.563Z,2.30
2022-12-22T10:50:18.840Z,2.03
2022-12-22T10:52:51.476Z,1.90
2022-12-22T10:55:21.078Z,2.15
2022-12-22T10:57:48.938Z,2.22
2022-12-22T11:00:24.428Z,2.08
2022-12-22T11:02:54.525Z,1.95
2022-12-22T11:05:22.619Z,1.83
2022-12-22T11:07:50.490Z,2.42
2022-12-22T11:10:20.195Z,2.00
2022-12-22T11:13:00.351Z,2.45
2022-12-22T11:15:32.523Z,2.17
2022-12-22T11:18:06.572Z,2.38
2022-12-22T11:20:40.070Z,2.08
2022-12-22T11:23:10.803Z,1.85
2022-12-22T11:25:44.053Z,2.28
2022-12-22T11:28:22.898Z,2.20
2022-12-22T11:30:56.486Z,1.90
2022-12-22T11:33:30.445Z,1.58
2022-12-22T11:35:59.674Z,2.15
2022-12-22T11:38:34.565Z,1.95
2022-12-22T11:41:05.699Z,1.70
2022-12-22T11:43:40.312Z,1.33
2022-12-22T11:46:16.268Z,1.45
2022-12-22T11:49:00.754Z,1.40
2022-12-22T11:51:34.726Z,1.33
2022-12-22T11:54:15.394Z,1.70
2022-12-22T11:56:45.558Z,1.35
2022-12-22T11:59:21.989Z,1.92
2022-12-22T12:01:58.426Z,1.35
2022-12-22T12:04:40.712Z,1.67
2022-12-22T12:07:25.940Z,1.10
2022-12-22T12:09:59.833Z,1.45
2022-12-22T12:12:29.232Z,1.52
2022-12-22T12:15:02.161Z,1.52
2022-12-22T12:17:35.357Z,1.27
2022-12-22T12:20:16.610Z,0.68
2022-12-22T12:22:50.544Z,1.35
2022-12-22T12:25:25.998Z,1.20
2022-12-22T12:28:05.034Z,1.15
2022-12-22T12:30:38.801Z,1.48
2022-12-22T12:33:09.439Z,1.20
2022-12-22T12:35:44.277Z,1.27
2022-12-22T12:38:39.372Z,1.25
2022-12-22T12:41:06.369Z,1.38
2022-12-22T12:43:34.852Z,1.30
2022-12-22T12:46:23.585Z,1.20
2022-12-22T12:48:51.361Z,1.33
2022-12-22T12:51:37.616Z,1.27
2022-12-22T12:54:23.914Z,1.20
2022-12-22T12:57:01.909Z,1.30
2022-12-22T12:59:44.532Z,1.30
2022-12-22T13:02:27.468Z,1.17
2022-12-22T13:05:13.100Z,0.82
2022-12-22T13:07:59.734Z,1.65
2022-12-22T13:10:27.570Z,1.33
2022-12-22T13:12:58.076Z,1.10
2022-12-22T13:15:30.433Z,1.23
2022-12-22T13:17:58.359Z,1.60
2022-12-22T13:20:27.150Z,1.38
2022-12-22T13:22:56.640Z,1.40
2022-12-22T13:25:25.486Z,0.90
2022-12-22T13:27:53.424Z,1.30
2022-12-22T13:30:22.745Z,1.10
2022-12-22T13:32:51.093Z,1.38
2022-12-22T13:35:42.966Z,1.10
2022-12-22T13:38:26.852Z,0.90
2022-12-22T13:40:54.765Z,1.40
2022-12-22T13:43:22.652Z,0.70
2022-12-22T13:45:52.591Z,1.10
2022-12-22T13:48:22.094Z,1.13
2022-12-22T13:50:51.435Z,0.95
2022-12-22T13:53:49.903Z,1.00
2022-12-22T13:56:09.485Z,0.98
2022-12-22T13:58:38.394Z,1.10
2022-12-22T14:01:16.239Z,1.40
2022-12-22T14:04:04.378Z,1.00
2022-12-22T14:06:33.565Z,0.80
2022-12-22T14:09:11.281Z,1.02
2022-12-22T14:11:39.392Z,0.80
2022-12-22T14:14:09.674Z,1.05
2022-12-22T14:16:43.362Z,0.63
2022-12-22T14:19:12.551Z,1.10
2022-12-22T14:21:40.844Z,1.10
2022-12-22T14:24:11.267Z,1.08
2022-12-22T14:26:39.247Z,0.80
2022-12-22T14:29:10.990Z,0.80
2022-12-22T14:31:53.010Z,1.20
2022-12-22T14:34:30.736Z,0.98
2022-12-22T14:36:59.060Z,1.13
2022-12-22T14:39:27.632Z,0.93
2022-12-22T14:41:56.852Z,0.77
2022-12-22T14:44:26.308Z,1.63
2022-12-22T14:47:07.015Z,0.90
2022-12-22T14:49:35.636Z,1.05
2022-12-22T14:52:07.365Z,0.80
2022-12-22T14:54:35.474Z,1.10
2022-12-22T14:57:13.219Z,1.33
2022-12-22T14:59:43.314Z,1.30
2022-12-22T15:02:23.003Z,0.93
2022-12-22T15:05:07.007Z,1.20
2022-12-22T15:10:36.639Z,1.23
2022-12-22T15:13:06.040Z,1.45
2022-12-22T15:15:34.606Z,1.20
2022-12-22T15:18:03.872Z,1.73
2022-12-22T15:20:38.806Z,1.13
2022-12-22T15:23:10.866Z,0.80
2022-12-22T15:25:38.577Z,0.80
2022-12-22T15:28:06.385Z,0.90
2022-12-22T15:30:34.272Z,0.85
2022-12-22T15:33:03.442Z,1.42
2022-12-22T15:35:32.200Z,0.88
2022-12-22T15:38:00.416Z,0.90
2022-12-22T15:40:28.738Z,1.10
2022-12-22T15:42:56.564Z,0.90
2022-12-22T15:45:24.218Z,1.15
2022-12-22T15:47:53.070Z,0.90
2022-12-22T15:50:23.604Z,1.45
2022-12-22T15:52:52.460Z,1.00
2022-12-22T15:55:20.911Z,0.95
2022-12-22T15:57:50.248Z,0.90
2022-12-22T16:00:18.715Z,1.20
2022-12-22T16:02:46.514Z,1.52
2022-12-22T16:05:15.430Z,1.13
2022-12-22T16:07:45.050Z,1.52
2022-12-22T16:10:20.321Z,1.48
2022-12-22T16:12:54.153Z,1.13
2022-12-22T16:15:21.957Z,1.10
2022-12-22T16:17:52.095Z,1.33
2022-12-22T16:20:21.005Z,1.63
2022-12-22T16:22:51.481Z,1.30
2022-12-22T16:25:20.982Z,1.30
2022-12-22T16:27:49.571Z,1.42
2022-12-22T16:30:19.215Z,1.90
2022-12-22T16:32:47.210Z,1.40
2022-12-22T16:35:16.435Z,1.48
2022-12-22T16:37:44.878Z,1.40
2022-12-22T16:40:14.420Z,1.65
2022-12-22T16:45:37.282Z,1.65
2022-12-22T16:48:06.799Z,1.90
2022-12-22T16:50:34.767Z,1.98
2022-12-22T16:53:03.307Z,2.10
2022-12-22T16:55:33.476Z,1.85
2022-12-22T16:58:01.321Z,1.85
2022-12-22T17:00:30.608Z,1.60
2022-12-22T17:03:00.467Z,2.28
2022-12-22T17:05:30.526Z,1.90
2022-12-22T17:07:59.589Z,2.28
2022-12-22T17:10:27.642Z,1.95
2022-12-22T17:12:57.566Z,2.15
2022-12-22T17:15:25.957Z,1.90
2022-12-22T17:17:53.967Z,2.15
2022-12-22T17:20:23.010Z,2.03
2022-12-22T17:22:53.182Z,2.67
2022-12-22T17:25:22.733Z,1.77
2022-12-22T17:27:50.747Z,2.13
2022-12-22T17:30:21.334Z,1.48
2022-12-22T17:32:49.284Z,2.17
2022-12-22T17:35:18.299Z,2.00
2022-12-22T17:37:47.131Z,2.03
2022-12-22T17:40:16.794Z,2.00
2022-12-22T17:42:44.561Z,1.33
2022-12-22T17:45:14.133Z,2.22
2022-12-22T17:47:43.555Z,2.13
2022-12-22T17:50:13.121Z,1.80
2022-12-22T17:52:41.590Z,2.20
2022-12-22T17:55:18.247Z,2.00
2022-12-22T17:57:46.082Z,2.05
2022-12-22T18:00:18.377Z,1.63
2022-12-22T18:02:47.908Z,1.55
2022-12-22T18:05:16.128Z,1.52
2022-12-22T18:07:44.811Z,1.85
2022-12-22T18:10:22.145Z,1.73
2022-12-22T18:12:50.044Z,0.98
2022-12-22T18:15:18.314Z,1.67
2022-12-22T18:17:47.547Z,1.20
2022-12-22T18:20:16.025Z,1.25
2022-12-22T18:22:44.388Z,1.63
2022-12-22T18:25:17.017Z,1.42
2022-12-22T18:27:45.290Z,1.02
2022-12-22T18:30:17.407Z,1.27
2022-12-22T18:32:45.218Z,1.70
2022-12-22T18:35:14.430Z,0.70
2022-12-22T18:37:42.740Z,0.88
2022-12-22T18:40:28.005Z,1.33
2022-12-22T18:42:57.567Z,1.15
2022-12-22T18:45:26.917Z,1.88
2022-12-22T18:47:54.785Z,3.42
2022-12-22T18:50:25.626Z,2.10
2022-12-22T18:52:56.861Z,1.80
2022-12-22T18:55:25.950Z,1.65
2022-12-22T18:57:54.439Z,1.00
2022-12-22T19:00:23.316Z,1.00
2022-12-22T19:02:52.215Z,1.17
2022-12-22T19:05:21.001Z,1.70
2022-12-22T19:07:50.158Z,1.60
2022-12-22T19:10:18.586Z,1.20
2022-12-22T19:12:48.473Z,0.98
2022-12-22T19:15:21.984Z,1.13
2022-12-22T19:17:50.979Z,1.30
2022-12-22T19:20:20.023Z,1.23
2022-12-22T19:22:48.301Z,1.05
2022-12-22T19:25:18.360Z,0.57
2022-12-22T19:27:46.834Z,1.17
2022-12-22T19:30:16.161Z,0.60
2022-12-22T19:32:46.274Z,0.70
2022-12-22T19:35:14.936Z,1.30
2022-12-22T19:37:42.705Z,0.82
2022-12-22T19:40:10.876Z,1.05
2022-12-22T19:42:40.912Z,0.55
2022-12-22T19:45:21.472Z,1.10
2022-12-22T19:47:50.042Z,0.47
2022-12-22T19:50:18.669Z,0.88
2022-12-22T19:52:46.535Z,1.02
2022-12-22T19:55:14.406Z,1.27
2022-12-22T19:57:44.518Z,1.17
2022-12-22T20:00:16.342Z,1.80
2022-12-22T20:02:44.927Z,0.95
2022-12-22T20:05:32.120Z,0.82
2022-12-22T20:08:00.759Z,1.00
2022-12-22T20:10:29.091Z,0.88
2022-12-22T20:12:59.552Z,1.30
2022-12-22T20:15:30.115Z,1.00
2022-12-22T20:17:58.672Z,0.98
2022-12-22T20:20:27.827Z,0.90
2022-12-22T20:22:56.667Z,0.75
2022-12-22T20:25:25.895Z,0.90
2022-12-22T20:27:54.337Z,1.45
2022-12-22T20:30:24.552Z,1.17
2022-12-22T20:32:53.128Z,0.85
2022-12-22T20:35:21.285Z,1.25
2022-12-22T20:37:49.067Z,1.13
2022-12-22T20:40:21.799Z,0.70
2022-12-22T20:42:49.719Z,0.35
2022-12-22T20:45:17.827Z,0.77
2022-12-22T20:47:46.982Z,1.00
2022-12-22T20:50:18.929Z,0.68
2022-12-22T20:52:46.703Z,1.45
2022-12-22T20:55:15.534Z,1.15
2022-12-22T20:57:43.564Z,1.02
2022-12-22T21:00:17.370Z,1.02
2022-12-22T21:02:45.601Z,0.93
2022-12-22T21:05:15.811Z,1.13
2022-12-22T21:07:43.991Z,0.77
2022-12-22T21:10:21.735Z,1.25
2022-12-22T21:12:49.596Z,0.65
2022-12-22T21:15:18.638Z,0.98
2022-12-22T21:17:47.488Z,0.40
2022-12-22T21:20:22.402Z,1.10
2022-12-22T21:22:50.185Z,0.88
2022-12-22T21:25:18.137Z,0.55
2022-12-22T21:27:47.027Z,0.73
2022-12-22T21:30:16.118Z,0.40
2022-12-22T21:32:44.090Z,0.70
2022-12-22T21:35:13.987Z,0.95
2022-12-22T21:37:43.455Z,0.75
2022-12-22T21:40:18.434Z,1.25
2022-12-22T21:42:46.411Z,2.05
2022-12-22T21:45:15.187Z,1.00
2022-12-22T21:47:43.671Z,0.45
2022-12-22T21:50:18.347Z,0.75
2022-12-22T21:52:50.240Z,0.45
2022-12-22T21:55:22.262Z,0.63
2022-12-22T21:57:50.291Z,0.73
2022-12-22T22:00:19.226Z,0.82
2022-12-22T22:02:47.478Z,0.50
2022-12-22T22:05:23.312Z,1.48
2022-12-22T22:07:52.604Z,0.88
2022-12-22T22:10:23.334Z,1.10
2022-12-22T22:12:51.249Z,1.05
2022-12-22T22:15:19.485Z,0.73
2022-12-22T22:17:47.555Z,1.05
2022-12-22T22:20:17.405Z,0.90
2022-12-22T22:22:45.833Z,0.63
2022-12-22T22:25:16.070Z,0.40
2022-12-22T22:27:47.724Z,1.33
2022-12-22T22:30:17.167Z,0.88
2022-12-22T22:32:45.199Z,0.80
2022-12-22T22:35:13.499Z,0.50
2022-12-22T22:37:41.579Z,0.95
2022-12-22T22:40:10.710Z,1.02
2022-12-22T22:42:39.788Z,0.85
2022-12-22T22:45:07.957Z,0.88
2022-12-22T22:47:36.003Z,0.80
2022-12-22T22:50:08.795Z,1.02
2022-12-22T22:52:37.064Z,1.42
2022-12-22T22:55:05.026Z,0.70
2022-12-22T22:57:32.876Z,0.80
2022-12-22T23:00:02.032Z,0.30
2022-12-22T23:02:29.857Z,0.68
2022-12-22T23:04:57.625Z,1.00
2022-12-22T23:07:25.532Z,0.45
2022-12-22T23:09:53.277Z,0.75
2022-12-22T23:12:20.947Z,0.50
2022-12-22T23:14:48.825Z,1.33
2022-12-22T23:17:17.917Z,1.27
2022-12-22T23:19:45.824Z,1.15
2022-12-22T23:22:13.603Z,0.52
2022-12-22T23:24:41.511Z,1.40
2022-12-22T23:27:09.380Z,1.05
2022-12-22T23:29:37.277Z,0.88
2022-12-22T23:32:05.107Z,0.43
2022-12-22T23:34:34.415Z,0.70
2022-12-22T23:37:02.216Z,0.80
2022-12-22T23:39:30.517Z,1.08
2022-12-22T23:41:58.366Z,0.73
2022-12-22T23:44:26.780Z,0.75
2022-12-22T23:46:54.720Z,0.60
2022-12-22T23:49:22.551Z,0.80
2022-12-22T23:51:51.630Z,0.60
2022-12-22T23:54:19.521Z,0.80
2022-12-22T23:56:47.285Z,0.95
2022-12-22T23:59:15.098Z,1.00
